sensor_id;sensor_type;location;lat;lon;timestamp;P1;durP1;ratioP1;P2;durP2;ratioP2
27566;SDS011;15006;48.584;9.186;2023-04-08T00:00:12;12.80;;;11.50;;
27566;SDS011;15006;48.584;9.186;2023-04-08T00:02:39;13.77;;;12.35;;
27566;SDS011;15006;48.584;9.186;2023-04-08T00:05:06;14.23;;;11.07;;
27566;SDS011;15006;48.584;9.186;2023-04-08T00:07:32;10.95;;;9.95;;
27566;SDS011;15006;48.584;9.186;2023-04-08T00:09:58;10.20;;;9.30;;
27566;SDS011;15006;48.584;9.186;2023-04-08T00:12:24;10.57;;;9.57;;
27566;SDS011;15006;48.584;9.186;2023-04-08T00:14:50;11.10;;;9.90;;
27566;SDS011;15006;48.584;9.186;2023-04-08T00:17:17;10.82;;;9.82;;
27566;SDS011;15006;48.584;9.186;2023-04-08T00:19:43;11.25;;;10.15;;
27566;SDS011;15006;48.584;9.186;2023-04-08T00:22:09;12.80;;;11.13;;
27566;SDS011;15006;48.584;9.186;2023-04-08T00:24:35;11.35;;;10.32;;
27566;SDS011;15006;48.584;9.186;2023-04-08T00:27:02;13.48;;;12.07;;
27566;SDS011;15006;48.584;9.186;2023-04-08T00:29:28;14.88;;;12.27;;
27566;SDS011;15006;48.584;9.186;2023-04-08T00:31:54;14.70;;;13.10;;
27566;SDS011;15006;48.584;9.186;2023-04-08T00:34:20;14.25;;;12.48;;
27566;SDS011;15006;48.584;9.186;2023-04-08T00:36:46;18.75;;;13.55;;
27566;SDS011;15006;48.584;9.186;2023-04-08T00:39:12;18.38;;;15.50;;
27566;SDS011;15006;48.584;9.186;2023-04-08T00:41:39;19.80;;;15.68;;
27566;SDS011;15006;48.584;9.186;2023-04-08T00:44:04;19.85;;;16.05;;
27566;SDS011;15006;48.584;9.186;2023-04-08T00:46:32;22.25;;;17.02;;
27566;SDS011;15006;48.584;9.186;2023-04-08T00:49:03;21.52;;;16.58;;
27566;SDS011;15006;48.584;9.186;2023-04-08T00:51:31;21.65;;;16.98;;
27566;SDS011;15006;48.584;9.186;2023-04-08T00:54:00;26.05;;;17.98;;
27566;SDS011;15006;48.584;9.186;2023-04-08T00:56:29;24.52;;;17.42;;
27566;SDS011;15006;48.584;9.186;2023-04-08T00:58:57;23.38;;;17.60;;
27566;SDS011;15006;48.584;9.186;2023-04-08T01:04:27;26.42;;;17.60;;
27566;SDS011;15006;48.584;9.186;2023-04-08T01:07:26;23.00;;;17.08;;
27566;SDS011;15006;48.584;9.186;2023-04-08T01:10:01;20.38;;;16.63;;
27566;SDS011;15006;48.584;9.186;2023-04-08T01:12:36;19.35;;;16.40;;
27566;SDS011;15006;48.584;9.186;2023-04-08T01:15:10;21.48;;;16.52;;
27566;SDS011;15006;48.584;9.186;2023-04-08T01:17:36;22.40;;;16.60;;
27566;SDS011;15006;48.584;9.186;2023-04-08T01:20:03;19.75;;;15.75;;
27566;SDS011;15006;48.584;9.186;2023-04-08T01:25:31;17.13;;;14.27;;
27566;SDS011;15006;48.584;9.186;2023-04-08T01:28:10;20.23;;;15.80;;
27566;SDS011;15006;48.584;9.186;2023-04-08T01:30:40;19.02;;;15.98;;
27566;SDS011;15006;48.584;9.186;2023-04-08T01:33:09;19.88;;;15.90;;
27566;SDS011;15006;48.584;9.186;2023-04-08T01:35:38;18.48;;;15.10;;
27566;SDS011;15006;48.584;9.186;2023-04-08T01:38:05;17.48;;;14.90;;
27566;SDS011;15006;48.584;9.186;2023-04-08T01:40:33;17.27;;;14.65;;
27566;SDS011;15006;48.584;9.186;2023-04-08T01:43:00;17.17;;;13.70;;
27566;SDS011;15006;48.584;9.186;2023-04-08T01:45:28;16.52;;;13.43;;
27566;SDS011;15006;48.584;9.186;2023-04-08T01:47:55;17.50;;;14.93;;
27566;SDS011;15006;48.584;9.186;2023-04-08T01:50:23;16.73;;;13.57;;
27566;SDS011;15006;48.584;9.186;2023-04-08T01:52:51;18.13;;;14.18;;
27566;SDS011;15006;48.584;9.186;2023-04-08T01:55:18;17.88;;;14.25;;
27566;SDS011;15006;48.584;9.186;2023-04-08T01:57:49;14.73;;;13.20;;
27566;SDS011;15006;48.584;9.186;2023-04-08T02:00:21;15.00;;;13.35;;
27566;SDS011;15006;48.584;9.186;2023-04-08T02:02:52;15.80;;;12.77;;
27566;SDS011;15006;48.584;9.186;2023-04-08T02:05:19;15.20;;;13.57;;
27566;SDS011;15006;48.584;9.186;2023-04-08T02:07:48;14.07;;;12.02;;
27566;SDS011;15006;48.584;9.186;2023-04-08T02:10:15;14.07;;;12.60;;
27566;SDS011;15006;48.584;9.186;2023-04-08T02:12:41;13.65;;;11.70;;
27566;SDS011;15006;48.584;9.186;2023-04-08T02:15:08;13.70;;;12.32;;
27566;SDS011;15006;48.584;9.186;2023-04-08T02:20:17;13.88;;;12.40;;
27566;SDS011;15006;48.584;9.186;2023-04-08T02:25:39;11.93;;;10.80;;
27566;SDS011;15006;48.584;9.186;2023-04-08T02:28:09;13.07;;;11.77;;
27566;SDS011;15006;48.584;9.186;2023-04-08T02:30:36;11.93;;;10.85;;
27566;SDS011;15006;48.584;9.186;2023-04-08T02:33:08;12.38;;;11.18;;
27566;SDS011;15006;48.584;9.186;2023-04-08T02:35:35;12.73;;;11.52;;
27566;SDS011;15006;48.584;9.186;2023-04-08T02:38:03;12.65;;;11.52;;
27566;SDS011;15006;48.584;9.186;2023-04-08T02:40:30;13.27;;;11.95;;
27566;SDS011;15006;48.584;9.186;2023-04-08T02:42:58;12.57;;;11.38;;
27566;SDS011;15006;48.584;9.186;2023-04-08T02:45:26;14.00;;;12.50;;
27566;SDS011;15006;48.584;9.186;2023-04-08T02:47:55;12.52;;;10.85;;
27566;SDS011;15006;48.584;9.186;2023-04-08T02:50:23;12.40;;;11.10;;
27566;SDS011;15006;48.584;9.186;2023-04-08T02:52:49;12.90;;;11.70;;
27566;SDS011;15006;48.584;9.186;2023-04-08T02:55:15;13.00;;;11.70;;
27566;SDS011;15006;48.584;9.186;2023-04-08T02:57:41;13.45;;;12.05;;
27566;SDS011;15006;48.584;9.186;2023-04-08T03:00:08;12.68;;;11.38;;
27566;SDS011;15006;48.584;9.186;2023-04-08T03:02:35;12.52;;;11.23;;
27566;SDS011;15006;48.584;9.186;2023-04-08T03:05:01;13.38;;;11.98;;
27566;SDS011;15006;48.584;9.186;2023-04-08T03:07:28;13.30;;;11.95;;
27566;SDS011;15006;48.584;9.186;2023-04-08T03:09:54;12.95;;;11.63;;
27566;SDS011;15006;48.584;9.186;2023-04-08T03:12:20;12.70;;;11.23;;
27566;SDS011;15006;48.584;9.186;2023-04-08T03:14:47;11.80;;;10.70;;
27566;SDS011;15006;48.584;9.186;2023-04-08T03:17:14;12.43;;;11.15;;
27566;SDS011;15006;48.584;9.186;2023-04-08T03:19:41;12.50;;;11.20;;
27566;SDS011;15006;48.584;9.186;2023-04-08T03:22:06;12.15;;;11.02;;
27566;SDS011;15006;48.584;9.186;2023-04-08T03:24:34;12.13;;;11.00;;
27566;SDS011;15006;48.584;9.186;2023-04-08T03:27:00;13.07;;;11.77;;
27566;SDS011;15006;48.584;9.186;2023-04-08T03:29:27;13.50;;;12.15;;
27566;SDS011;15006;48.584;9.186;2023-04-08T03:31:53;12.23;;;11.07;;
27566;SDS011;15006;48.584;9.186;2023-04-08T03:34:19;11.70;;;10.57;;
27566;SDS011;15006;48.584;9.186;2023-04-08T03:36:45;12.40;;;11.23;;
27566;SDS011;15006;48.584;9.186;2023-04-08T03:39:11;13.32;;;12.02;;
27566;SDS011;15006;48.584;9.186;2023-04-08T03:41:38;12.57;;;11.38;;
27566;SDS011;15006;48.584;9.186;2023-04-08T03:44:04;12.98;;;11.68;;
27566;SDS011;15006;48.584;9.186;2023-04-08T03:46:30;12.00;;;10.82;;
27566;SDS011;15006;48.584;9.186;2023-04-08T03:48:56;13.25;;;11.98;;
27566;SDS011;15006;48.584;9.186;2023-04-08T03:51:21;13.93;;;12.38;;
27566;SDS011;15006;48.584;9.186;2023-04-08T03:53:47;12.60;;;11.32;;
27566;SDS011;15006;48.584;9.186;2023-04-08T03:56:14;11.85;;;10.80;;
27566;SDS011;15006;48.584;9.186;2023-04-08T03:58:40;12.15;;;10.98;;
27566;SDS011;15006;48.584;9.186;2023-04-08T04:01:06;13.00;;;11.68;;
27566;SDS011;15006;48.584;9.186;2023-04-08T04:03:32;12.25;;;11.07;;
27566;SDS011;15006;48.584;9.186;2023-04-08T04:05:58;13.68;;;12.27;;
27566;SDS011;15006;48.584;9.186;2023-04-08T04:08:24;14.05;;;12.60;;
27566;SDS011;15006;48.584;9.186;2023-04-08T04:10:50;13.85;;;12.45;;
27566;SDS011;15006;48.584;9.186;2023-04-08T04:13:16;16.70;;;14.48;;
27566;SDS011;15006;48.584;9.186;2023-04-08T04:15:43;14.70;;;13.07;;
27566;SDS011;15006;48.584;9.186;2023-04-08T04:18:09;16.10;;;13.90;;
27566;SDS011;15006;48.584;9.186;2023-04-08T04:20:38;18.83;;;13.75;;
27566;SDS011;15006;48.584;9.186;2023-04-08T04:23:05;14.43;;;12.95;;
27566;SDS011;15006;48.584;9.186;2023-04-08T04:25:32;15.48;;;13.77;;
27566;SDS011;15006;48.584;9.186;2023-04-08T04:27:57;15.13;;;13.15;;
27566;SDS011;15006;48.584;9.186;2023-04-08T04:30:24;15.43;;;13.20;;
27566;SDS011;15006;48.584;9.186;2023-04-08T04:32:50;14.73;;;13.13;;
27566;SDS011;15006;48.584;9.186;2023-04-08T04:35:16;13.80;;;12.40;;
27566;SDS011;15006;48.584;9.186;2023-04-08T04:37:42;15.50;;;13.60;;
27566;SDS011;15006;48.584;9.186;2023-04-08T04:40:08;13.82;;;12.35;;
27566;SDS011;15006;48.584;9.186;2023-04-08T04:42:34;16.35;;;13.38;;
27566;SDS011;15006;48.584;9.186;2023-04-08T04:45:00;14.25;;;12.20;;
27566;SDS011;15006;48.584;9.186;2023-04-08T04:47:26;15.18;;;13.13;;
27566;SDS011;15006;48.584;9.186;2023-04-08T04:49:52;15.80;;;12.77;;
27566;SDS011;15006;48.584;9.186;2023-04-08T04:52:18;13.95;;;12.13;;
27566;SDS011;15006;48.584;9.186;2023-04-08T04:54:44;13.50;;;12.10;;
27566;SDS011;15006;48.584;9.186;2023-04-08T04:57:10;16.50;;;13.55;;
27566;SDS011;15006;48.584;9.186;2023-04-08T04:59:36;13.75;;;12.18;;
27566;SDS011;15006;48.584;9.186;2023-04-08T05:02:02;16.33;;;13.52;;
27566;SDS011;15006;48.584;9.186;2023-04-08T05:04:28;13.48;;;12.07;;
27566;SDS011;15006;48.584;9.186;2023-04-08T05:06:54;18.77;;;13.25;;
27566;SDS011;15006;48.584;9.186;2023-04-08T05:09:23;15.15;;;12.75;;
27566;SDS011;15006;48.584;9.186;2023-04-08T05:11:49;16.08;;;13.15;;
27566;SDS011;15006;48.584;9.186;2023-04-08T05:14:15;15.35;;;13.40;;
27566;SDS011;15006;48.584;9.186;2023-04-08T05:16:41;17.40;;;13.60;;
27566;SDS011;15006;48.584;9.186;2023-04-08T05:19:07;17.77;;;14.10;;
27566;SDS011;15006;48.584;9.186;2023-04-08T05:21:33;17.05;;;13.70;;
27566;SDS011;15006;48.584;9.186;2023-04-08T05:23:59;15.93;;;13.32;;
27566;SDS011;15006;48.584;9.186;2023-04-08T05:26:26;18.35;;;14.85;;
27566;SDS011;15006;48.584;9.186;2023-04-08T05:28:52;19.52;;;14.20;;
27566;SDS011;15006;48.584;9.186;2023-04-08T05:31:18;17.20;;;13.90;;
27566;SDS011;15006;48.584;9.186;2023-04-08T05:33:45;17.90;;;13.82;;
27566;SDS011;15006;48.584;9.186;2023-04-08T05:36:12;18.05;;;14.13;;
27566;SDS011;15006;48.584;9.186;2023-04-08T05:38:39;17.00;;;13.30;;
27566;SDS011;15006;48.584;9.186;2023-04-08T05:41:07;15.85;;;13.30;;
27566;SDS011;15006;48.584;9.186;2023-04-08T05:43:33;18.13;;;14.23;;
27566;SDS011;15006;48.584;9.186;2023-04-08T05:46:04;17.23;;;13.55;;
27566;SDS011;15006;48.584;9.186;2023-04-08T05:48:34;16.88;;;13.32;;
27566;SDS011;15006;48.584;9.186;2023-04-08T05:51:00;16.98;;;13.48;;
27566;SDS011;15006;48.584;9.186;2023-04-08T05:53:27;17.55;;;13.32;;
27566;SDS011;15006;48.584;9.186;2023-04-08T05:55:54;17.17;;;14.07;;
27566;SDS011;15006;48.584;9.186;2023-04-08T05:58:20;18.75;;;13.85;;
27566;SDS011;15006;48.584;9.186;2023-04-08T06:00:46;19.02;;;13.63;;
27566;SDS011;15006;48.584;9.186;2023-04-08T06:03:12;18.48;;;14.75;;
27566;SDS011;15006;48.584;9.186;2023-04-08T06:05:38;19.13;;;14.27;;
27566;SDS011;15006;48.584;9.186;2023-04-08T06:08:04;18.77;;;13.82;;
27566;SDS011;15006;48.584;9.186;2023-04-08T06:10:31;18.60;;;14.20;;
27566;SDS011;15006;48.584;9.186;2023-04-08T06:12:56;19.58;;;14.85;;
27566;SDS011;15006;48.584;9.186;2023-04-08T06:15:22;19.60;;;14.65;;
27566;SDS011;15006;48.584;9.186;2023-04-08T06:17:48;18.80;;;15.10;;
27566;SDS011;15006;48.584;9.186;2023-04-08T06:20:15;20.13;;;15.00;;
27566;SDS011;15006;48.584;9.186;2023-04-08T06:22:41;19.90;;;15.50;;
27566;SDS011;15006;48.584;9.186;2023-04-08T06:25:07;19.63;;;15.30;;
27566;SDS011;15006;48.584;9.186;2023-04-08T06:27:33;20.95;;;16.05;;
27566;SDS011;15006;48.584;9.186;2023-04-08T06:29:59;23.23;;;16.55;;
27566;SDS011;15006;48.584;9.186;2023-04-08T06:32:26;21.13;;;16.15;;
27566;SDS011;15006;48.584;9.186;2023-04-08T06:34:52;17.50;;;13.40;;
27566;SDS011;15006;48.584;9.186;2023-04-08T06:37:17;17.70;;;13.73;;
27566;SDS011;15006;48.584;9.186;2023-04-08T06:39:43;18.05;;;13.68;;
27566;SDS011;15006;48.584;9.186;2023-04-08T06:42:10;17.55;;;12.57;;
27566;SDS011;15006;48.584;9.186;2023-04-08T06:44:36;15.23;;;12.80;;
27566;SDS011;15006;48.584;9.186;2023-04-08T06:47:01;17.35;;;13.48;;
27566;SDS011;15006;48.584;9.186;2023-04-08T06:49:27;14.02;;;12.57;;
27566;SDS011;15006;48.584;9.186;2023-04-08T06:51:54;13.77;;;11.73;;
27566;SDS011;15006;48.584;9.186;2023-04-08T06:54:20;13.55;;;12.00;;
27566;SDS011;15006;48.584;9.186;2023-04-08T06:56:46;14.77;;;12.60;;
27566;SDS011;15006;48.584;9.186;2023-04-08T06:59:12;11.65;;;10.38;;
27566;SDS011;15006;48.584;9.186;2023-04-08T07:01:38;12.48;;;10.80;;
27566;SDS011;15006;48.584;9.186;2023-04-08T07:04:04;11.10;;;10.10;;
27566;SDS011;15006;48.584;9.186;2023-04-08T07:06:30;10.75;;;9.77;;
27566;SDS011;15006;48.584;9.186;2023-04-08T07:08:56;10.55;;;9.65;;
27566;SDS011;15006;48.584;9.186;2023-04-08T07:11:22;10.05;;;9.25;;
27566;SDS011;15006;48.584;9.186;2023-04-08T07:13:48;10.50;;;9.60;;
27566;SDS011;15006;48.584;9.186;2023-04-08T07:16:15;10.27;;;9.38;;
27566;SDS011;15006;48.584;9.186;2023-04-08T07:18:40;10.02;;;9.23;;
27566;SDS011;15006;48.584;9.186;2023-04-08T07:21:08;10.32;;;9.35;;
27566;SDS011;15006;48.584;9.186;2023-04-08T07:23:33;9.98;;;9.05;;
27566;SDS011;15006;48.584;9.186;2023-04-08T07:26:03;10.50;;;9.60;;
27566;SDS011;15006;48.584;9.186;2023-04-08T07:28:29;11.10;;;10.10;;
27566;SDS011;15006;48.584;9.186;2023-04-08T07:30:56;10.15;;;9.43;;
27566;SDS011;15006;48.584;9.186;2023-04-08T07:33:39;10.60;;;9.70;;
27566;SDS011;15006;48.584;9.186;2023-04-08T07:36:05;10.82;;;9.85;;
27566;SDS011;15006;48.584;9.186;2023-04-08T07:38:31;10.48;;;9.50;;
27566;SDS011;15006;48.584;9.186;2023-04-08T07:40:57;11.20;;;10.10;;
27566;SDS011;15006;48.584;9.186;2023-04-08T07:43:23;10.32;;;9.43;;
27566;SDS011;15006;48.584;9.186;2023-04-08T07:45:49;9.80;;;9.00;;
27566;SDS011;15006;48.584;9.186;2023-04-08T07:48:15;10.07;;;9.10;;
27566;SDS011;15006;48.584;9.186;2023-04-08T07:50:41;11.02;;;9.75;;
27566;SDS011;15006;48.584;9.186;2023-04-08T07:53:07;8.82;;;8.13;;
27566;SDS011;15006;48.584;9.186;2023-04-08T07:55:34;8.35;;;7.75;;
27566;SDS011;15006;48.584;9.186;2023-04-08T07:58:00;8.57;;;7.90;;
27566;SDS011;15006;48.584;9.186;2023-04-08T08:00:26;8.45;;;7.85;;
27566;SDS011;15006;48.584;9.186;2023-04-08T08:02:54;8.77;;;8.07;;
27566;SDS011;15006;48.584;9.186;2023-04-08T08:05:21;8.77;;;8.00;;
27566;SDS011;15006;48.584;9.186;2023-04-08T08:07:47;8.68;;;8.05;;
27566;SDS011;15006;48.584;9.186;2023-04-08T08:10:14;8.60;;;7.90;;
27566;SDS011;15006;48.584;9.186;2023-04-08T08:12:40;9.80;;;8.90;;
27566;SDS011;15006;48.584;9.186;2023-04-08T08:15:06;9.48;;;8.68;;
27566;SDS011;15006;48.584;9.186;2023-04-08T08:17:33;12.57;;;8.88;;
27566;SDS011;15006;48.584;9.186;2023-04-08T08:19:59;9.45;;;8.30;;
27566;SDS011;15006;48.584;9.186;2023-04-08T08:22:26;8.57;;;7.85;;
27566;SDS011;15006;48.584;9.186;2023-04-08T08:24:55;9.18;;;8.48;;
27566;SDS011;15006;48.584;9.186;2023-04-08T08:27:22;9.25;;;8.55;;
27566;SDS011;15006;48.584;9.186;2023-04-08T08:29:48;9.95;;;9.05;;
27566;SDS011;15006;48.584;9.186;2023-04-08T08:32:14;9.95;;;9.10;;
27566;SDS011;15006;48.584;9.186;2023-04-08T08:34:40;9.30;;;8.60;;
27566;SDS011;15006;48.584;9.186;2023-04-08T08:37:06;9.27;;;8.48;;
27566;SDS011;15006;48.584;9.186;2023-04-08T08:39:32;8.88;;;8.18;;
27566;SDS011;15006;48.584;9.186;2023-04-08T08:41:58;9.65;;;8.85;;
27566;SDS011;15006;48.584;9.186;2023-04-08T08:44:24;8.50;;;7.90;;
27566;SDS011;15006;48.584;9.186;2023-04-08T08:46:51;12.68;;;8.60;;
27566;SDS011;15006;48.584;9.186;2023-04-08T08:49:17;9.48;;;8.50;;
27566;SDS011;15006;48.584;9.186;2023-04-08T08:51:46;9.43;;;8.60;;
27566;SDS011;15006;48.584;9.186;2023-04-08T08:56:41;9.50;;;8.65;;
27566;SDS011;15006;48.584;9.186;2023-04-08T08:59:08;9.65;;;8.30;;
27566;SDS011;15006;48.584;9.186;2023-04-08T09:01:35;10.13;;;9.18;;
27566;SDS011;15006;48.584;9.186;2023-04-08T09:04:10;13.50;;;10.55;;
27566;SDS011;15006;48.584;9.186;2023-04-08T09:06:45;11.48;;;10.32;;
27566;SDS011;15006;48.584;9.186;2023-04-08T09:09:16;12.05;;;10.85;;
27566;SDS011;15006;48.584;9.186;2023-04-08T09:11:43;12.43;;;11.13;;
27566;SDS011;15006;48.584;9.186;2023-04-08T09:14:21;10.50;;;9.55;;
27566;SDS011;15006;48.584;9.186;2023-04-08T09:16:49;10.40;;;9.40;;
27566;SDS011;15006;48.584;9.186;2023-04-08T09:19:16;10.35;;;9.35;;
27566;SDS011;15006;48.584;9.186;2023-04-08T09:21:43;10.00;;;9.10;;
27566;SDS011;15006;48.584;9.186;2023-04-08T09:24:09;10.05;;;9.10;;
27566;SDS011;15006;48.584;9.186;2023-04-08T09:26:53;9.80;;;9.02;;
27566;SDS011;15006;48.584;9.186;2023-04-08T09:29:19;11.40;;;10.40;;
27566;SDS011;15006;48.584;9.186;2023-04-08T09:31:53;10.43;;;9.52;;
27566;SDS011;15006;48.584;9.186;2023-04-08T09:34:24;11.68;;;10.57;;
27566;SDS011;15006;48.584;9.186;2023-04-08T09:36:52;12.02;;;10.70;;
27566;SDS011;15006;48.584;9.186;2023-04-08T09:39:19;10.77;;;9.88;;
27566;SDS011;15006;48.584;9.186;2023-04-08T09:41:49;11.05;;;10.05;;
27566;SDS011;15006;48.584;9.186;2023-04-08T09:44:17;11.43;;;10.43;;
27566;SDS011;15006;48.584;9.186;2023-04-08T09:49:26;10.18;;;9.25;;
27566;SDS011;15006;48.584;9.186;2023-04-08T09:52:06;9.77;;;8.98;;
27566;SDS011;15006;48.584;9.186;2023-04-08T09:57:43;10.13;;;8.98;;
27566;SDS011;15006;48.584;9.186;2023-04-08T10:00:14;9.82;;;8.95;;
27566;SDS011;15006;48.584;9.186;2023-04-08T10:02:54;10.48;;;9.48;;
27566;SDS011;15006;48.584;9.186;2023-04-08T10:05:45;9.20;;;8.60;;
27566;SDS011;15006;48.584;9.186;2023-04-08T10:08:13;9.68;;;8.20;;
27566;SDS011;15006;48.584;9.186;2023-04-08T10:10:40;9.27;;;8.48;;
27566;SDS011;15006;48.584;9.186;2023-04-08T10:13:07;9.15;;;8.52;;
27566;SDS011;15006;48.584;9.186;2023-04-08T10:15:33;9.48;;;8.68;;
27566;SDS011;15006;48.584;9.186;2023-04-08T10:23:00;8.43;;;7.88;;
27566;SDS011;15006;48.584;9.186;2023-04-08T10:25:27;8.48;;;7.97;;
27566;SDS011;15006;48.584;9.186;2023-04-08T10:33:21;9.38;;;8.68;;
27566;SDS011;15006;48.584;9.186;2023-04-08T10:35:53;10.15;;;9.35;;
27566;SDS011;15006;48.584;9.186;2023-04-08T10:38:27;9.15;;;8.55;;
27566;SDS011;15006;48.584;9.186;2023-04-08T10:40:53;9.07;;;8.38;;
27566;SDS011;15006;48.584;9.186;2023-04-08T10:43:19;8.65;;;8.05;;
27566;SDS011;15006;48.584;9.186;2023-04-08T10:45:46;8.38;;;7.80;;
27566;SDS011;15006;48.584;9.186;2023-04-08T10:50:42;8.93;;;8.32;;
27566;SDS011;15006;48.584;9.186;2023-04-08T10:53:29;10.35;;;8.38;;
27566;SDS011;15006;48.584;9.186;2023-04-08T10:56:08;8.85;;;8.15;;
27566;SDS011;15006;48.584;9.186;2023-04-08T10:58:49;13.57;;;8.77;;
27566;SDS011;15006;48.584;9.186;2023-04-08T11:01:23;13.93;;;8.80;;
27566;SDS011;15006;48.584;9.186;2023-04-08T11:03:49;9.55;;;8.75;;
27566;SDS011;15006;48.584;9.186;2023-04-08T11:06:15;9.48;;;8.68;;
27566;SDS011;15006;48.584;9.186;2023-04-08T11:08:44;10.13;;;9.43;;
27566;SDS011;15006;48.584;9.186;2023-04-08T11:11:11;9.95;;;9.20;;
27566;SDS011;15006;48.584;9.186;2023-04-08T11:13:41;10.07;;;9.13;;
27566;SDS011;15006;48.584;9.186;2023-04-08T11:16:08;9.98;;;8.95;;
27566;SDS011;15006;48.584;9.186;2023-04-08T11:18:34;10.25;;;9.45;;
27566;SDS011;15006;48.584;9.186;2023-04-08T11:21:07;9.80;;;8.88;;
27566;SDS011;15006;48.584;9.186;2023-04-08T11:23:37;11.50;;;10.30;;
27566;SDS011;15006;48.584;9.186;2023-04-08T11:26:03;10.80;;;9.80;;
27566;SDS011;15006;48.584;9.186;2023-04-08T11:28:29;10.77;;;9.85;;
27566;SDS011;15006;48.584;9.186;2023-04-08T11:30:56;11.15;;;10.05;;
27566;SDS011;15006;48.584;9.186;2023-04-08T11:33:25;11.10;;;10.15;;
27566;SDS011;15006;48.584;9.186;2023-04-08T11:35:51;10.18;;;9.38;;
27566;SDS011;15006;48.584;9.186;2023-04-08T11:38:20;11.13;;;10.13;;
27566;SDS011;15006;48.584;9.186;2023-04-08T11:40:52;10.48;;;9.43;;
27566;SDS011;15006;48.584;9.186;2023-04-08T11:45:45;12.35;;;10.50;;
27566;SDS011;15006;48.584;9.186;2023-04-08T11:48:12;11.65;;;10.55;;
27566;SDS011;15006;48.584;9.186;2023-04-08T11:50:40;10.75;;;9.75;;
27566;SDS011;15006;48.584;9.186;2023-04-08T11:53:16;12.68;;;10.00;;
27566;SDS011;15006;48.584;9.186;2023-04-08T11:55:47;10.65;;;9.73;;
27566;SDS011;15006;48.584;9.186;2023-04-08T11:58:13;11.05;;;10.15;;
27566;SDS011;15006;48.584;9.186;2023-04-08T12:00:40;11.38;;;10.25;;
27566;SDS011;15006;48.584;9.186;2023-04-08T12:03:07;11.45;;;10.45;;
27566;SDS011;15006;48.584;9.186;2023-04-08T12:05:33;13.48;;;10.30;;
27566;SDS011;15006;48.584;9.186;2023-04-08T12:07:59;12.20;;;10.27;;
27566;SDS011;15006;48.584;9.186;2023-04-08T12:10:26;10.95;;;10.07;;
27566;SDS011;15006;48.584;9.186;2023-04-08T12:12:51;11.82;;;10.73;;
27566;SDS011;15006;48.584;9.186;2023-04-08T12:15:17;12.40;;;11.13;;
27566;SDS011;15006;48.584;9.186;2023-04-08T12:17:44;11.25;;;10.35;;
27566;SDS011;15006;48.584;9.186;2023-04-08T12:20:10;10.40;;;9.60;;
27566;SDS011;15006;48.584;9.186;2023-04-08T12:22:37;11.40;;;10.35;;
27566;SDS011;15006;48.584;9.186;2023-04-08T12:25:03;11.75;;;10.57;;
27566;SDS011;15006;48.584;9.186;2023-04-08T12:27:31;11.80;;;10.75;;
27566;SDS011;15006;48.584;9.186;2023-04-08T12:30:00;11.25;;;10.15;;
27566;SDS011;15006;48.584;9.186;2023-04-08T12:32:28;12.00;;;10.88;;
27566;SDS011;15006;48.584;9.186;2023-04-08T12:34:54;11.98;;;10.73;;
27566;SDS011;15006;48.584;9.186;2023-04-08T12:37:21;13.25;;;11.43;;
27566;SDS011;15006;48.584;9.186;2023-04-08T12:39:46;13.82;;;12.43;;
27566;SDS011;15006;48.584;9.186;2023-04-08T12:42:13;12.20;;;11.10;;
27566;SDS011;15006;48.584;9.186;2023-04-08T12:44:39;19.98;;;13.23;;
27566;SDS011;15006;48.584;9.186;2023-04-08T12:47:05;14.90;;;11.88;;
27566;SDS011;15006;48.584;9.186;2023-04-08T12:49:30;12.68;;;11.38;;
27566;SDS011;15006;48.584;9.186;2023-04-08T12:51:56;11.20;;;10.20;;
27566;SDS011;15006;48.584;9.186;2023-04-08T12:54:22;16.85;;;11.55;;
27566;SDS011;15006;48.584;9.186;2023-04-08T12:56:48;24.25;;;14.90;;
27566;SDS011;15006;48.584;9.186;2023-04-08T12:59:14;34.55;;;21.77;;
27566;SDS011;15006;48.584;9.186;2023-04-08T13:01:40;21.08;;;14.05;;
27566;SDS011;15006;48.584;9.186;2023-04-08T13:04:07;12.82;;;11.63;;
27566;SDS011;15006;48.584;9.186;2023-04-08T13:06:32;11.65;;;10.63;;
27566;SDS011;15006;48.584;9.186;2023-04-08T13:08:58;11.90;;;10.80;;
27566;SDS011;15006;48.584;9.186;2023-04-08T13:11:24;12.93;;;11.30;;
27566;SDS011;15006;48.584;9.186;2023-04-08T13:13:50;11.88;;;10.88;;
27566;SDS011;15006;48.584;9.186;2023-04-08T13:16:16;12.85;;;11.07;;
27566;SDS011;15006;48.584;9.186;2023-04-08T13:18:42;12.55;;;11.10;;
27566;SDS011;15006;48.584;9.186;2023-04-08T13:21:08;12.68;;;10.82;;
27566;SDS011;15006;48.584;9.186;2023-04-08T13:23:34;14.45;;;11.75;;
27566;SDS011;15006;48.584;9.186;2023-04-08T13:26:01;14.57;;;12.05;;
27566;SDS011;15006;48.584;9.186;2023-04-08T13:28:27;12.63;;;11.40;;
27566;SDS011;15006;48.584;9.186;2023-04-08T13:30:53;14.07;;;12.25;;
27566;SDS011;15006;48.584;9.186;2023-04-08T13:33:20;15.15;;;12.20;;
27566;SDS011;15006;48.584;9.186;2023-04-08T13:35:46;12.95;;;11.65;;
27566;SDS011;15006;48.584;9.186;2023-04-08T13:38:12;13.27;;;11.63;;
27566;SDS011;15006;48.584;9.186;2023-04-08T13:40:39;13.07;;;11.77;;
27566;SDS011;15006;48.584;9.186;2023-04-08T13:43:05;12.32;;;11.30;;
27566;SDS011;15006;48.584;9.186;2023-04-08T13:45:31;12.13;;;11.02;;
27566;SDS011;15006;48.584;9.186;2023-04-08T13:47:57;12.95;;;11.75;;
27566;SDS011;15006;48.584;9.186;2023-04-08T13:50:24;14.27;;;11.48;;
27566;SDS011;15006;48.584;9.186;2023-04-08T13:52:50;13.27;;;11.98;;
27566;SDS011;15006;48.584;9.186;2023-04-08T13:55:16;14.07;;;12.82;;
27566;SDS011;15006;48.584;9.186;2023-04-08T13:57:42;13.20;;;11.95;;
27566;SDS011;15006;48.584;9.186;2023-04-08T14:00:09;13.07;;;11.77;;
27566;SDS011;15006;48.584;9.186;2023-04-08T14:02:36;13.63;;;12.23;;
27566;SDS011;15006;48.584;9.186;2023-04-08T14:05:02;14.88;;;13.35;;
27566;SDS011;15006;48.584;9.186;2023-04-08T14:07:28;19.88;;;13.27;;
27566;SDS011;15006;48.584;9.186;2023-04-08T14:09:54;14.43;;;12.95;;
27566;SDS011;15006;48.584;9.186;2023-04-08T14:12:20;14.20;;;12.25;;
27566;SDS011;15006;48.584;9.186;2023-04-08T14:14:46;17.92;;;12.88;;
27566;SDS011;15006;48.584;9.186;2023-04-08T14:17:12;18.73;;;13.57;;
27566;SDS011;15006;48.584;9.186;2023-04-08T14:19:39;14.95;;;13.30;;
27566;SDS011;15006;48.584;9.186;2023-04-08T14:22:06;14.73;;;12.30;;
27566;SDS011;15006;48.584;9.186;2023-04-08T14:24:32;13.10;;;11.85;;
27566;SDS011;15006;48.584;9.186;2023-04-08T14:26:58;28.25;;;18.83;;
27566;SDS011;15006;48.584;9.186;2023-04-08T14:29:24;25.63;;;19.92;;
27566;SDS011;15006;48.584;9.186;2023-04-08T14:31:50;22.52;;;17.80;;
27566;SDS011;15006;48.584;9.186;2023-04-08T14:34:16;17.30;;;14.75;;
27566;SDS011;15006;48.584;9.186;2023-04-08T14:36:42;20.75;;;16.60;;
27566;SDS011;15006;48.584;9.186;2023-04-08T14:39:09;22.52;;;16.75;;
27566;SDS011;15006;48.584;9.186;2023-04-08T14:41:36;13.60;;;12.13;;
27566;SDS011;15006;48.584;9.186;2023-04-08T14:44:02;13.93;;;12.52;;
27566;SDS011;15006;48.584;9.186;2023-04-08T14:46:29;15.38;;;12.68;;
27566;SDS011;15006;48.584;9.186;2023-04-08T14:48:55;12.20;;;11.00;;
27566;SDS011;15006;48.584;9.186;2023-04-08T14:51:23;12.05;;;10.82;;
27566;SDS011;15006;48.584;9.186;2023-04-08T14:53:49;12.85;;;11.55;;
27566;SDS011;15006;48.584;9.186;2023-04-08T14:56:15;13.02;;;11.73;;
27566;SDS011;15006;48.584;9.186;2023-04-08T14:58:41;12.20;;;11.00;;
27566;SDS011;15006;48.584;9.186;2023-04-08T15:01:07;12.07;;;10.93;;